Terminal Aerodrome Forecast
Issued by NWS

Home | Current Version | Previous Version | Text Only | Print | Product List | Glossary On
Versions: 1 2 3 4 5 6 7 8 9 10 11 12 13 14 15 16 17
000
FTUS46 KPDT 251400 AAA
TAFALW
TAF AMD
KALW 251449Z 2515/2612 19007KT 1/2SM FG OVC003
     FM251700 15006KT 2SM BR BKN002 BKN250
     FM251800 20011KT P6SM BKN100
     FM252200 22014KT P6SM OVC080
     FM260300 22018G25KT P6SM -SHRA BKN050 OVC070
     FM260700 22022G32KT P6SM -SHRA OVC040=

USA.gov is the U.S. government's official web portal to all federal, state and local government web resources and services.